Marlow Heights, Maryland
Current Conditions -  °F | °C
As of 1:58 AM on Saturday 25 Oct 2014 (Local Time) from KADW Reporting Station
Clear Clear  
Wind Chill: 54°   Ceiling: Unl
Heat Index: 54°   Visibility: 10mi
Dew Point: 38°   Wind: 8mph
Humidity: 55%   Direction: 310°NW
Pressure: 29.95"   Gusts: NA
Location:  38.8377°N, 76.9193°W
Report Text: KADW 250558Z AUTO 31007KT 10SM CLR 12/04 A2995 RMK AO2 SLP148 T01240036 10155 20118 50002 $
Loading
Personal Weather Stations






























Interactive Weather Map
Tropical Storm Tracking
New forecast layout! Learn more

10-Day Weather Forecast

Advertisements
Track Severe Weather on mobile